sensor_id;sensor_type;location;lat;lon;timestamp;pressure;altitude;pressure_sealevel;temperature;humidity
78894;BME280;68282;42.698;23.350;2023-09-18T00:01:36;95930.72;;;20.41;62.36
78894;BME280;68282;42.698;23.350;2023-09-18T00:04:01;95928.28;;;20.34;62.82
78894;BME280;68282;42.698;23.350;2023-09-18T00:06:27;95919.50;;;20.27;62.94
78894;BME280;68282;42.698;23.350;2023-09-18T00:08:52;95914.75;;;20.33;62.66
78894;BME280;68282;42.698;23.350;2023-09-18T00:11:19;95919.97;;;20.34;62.71
78894;BME280;68282;42.698;23.350;2023-09-18T00:13:44;95917.50;;;20.38;62.97
78894;BME280;68282;42.698;23.350;2023-09-18T00:16:09;95918.56;;;20.42;62.41
78894;BME280;68282;42.698;23.350;2023-09-18T00:18:35;95911.97;;;20.38;62.62
78894;BME280;68282;42.698;23.350;2023-09-18T00:21:01;95918.00;;;20.45;62.21
78894;BME280;68282;42.698;23.350;2023-09-18T00:23:26;95920.53;;;20.36;62.92
78894;BME280;68282;42.698;23.350;2023-09-18T00:25:51;95923.03;;;20.38;62.50
78894;BME280;68282;42.698;23.350;2023-09-18T00:28:17;95920.50;;;20.42;62.48
78894;BME280;68282;42.698;23.350;2023-09-18T00:30:47;95921.91;;;20.39;62.40
78894;BME280;68282;42.698;23.350;2023-09-18T00:33:13;95904.53;;;20.33;62.17
78894;BME280;68282;42.698;23.350;2023-09-18T00:35:39;95912.53;;;20.35;62.05
78894;BME280;68282;42.698;23.350;2023-09-18T00:38:04;95931.81;;;20.40;62.26
78894;BME280;68282;42.698;23.350;2023-09-18T00:40:32;95927.44;;;20.39;61.95
78894;BME280;68282;42.698;23.350;2023-09-18T00:42:58;95919.16;;;20.34;62.17
78894;BME280;68282;42.698;23.350;2023-09-18T00:45:23;95931.81;;;20.40;61.93
78894;BME280;68282;42.698;23.350;2023-09-18T00:47:49;95926.84;;;20.42;62.00
78894;BME280;68282;42.698;23.350;2023-09-18T00:50:15;95929.59;;;20.42;61.83
78894;BME280;68282;42.698;23.350;2023-09-18T00:52:41;95930.44;;;20.43;61.81
78894;BME280;68282;42.698;23.350;2023-09-18T00:55:08;95924.06;;;20.42;62.16
78894;BME280;68282;42.698;23.350;2023-09-18T00:57:35;95923.03;;;20.38;61.99
78894;BME280;68282;42.698;23.350;2023-09-18T01:00:02;95930.19;;;20.39;62.15
78894;BME280;68282;42.698;23.350;2023-09-18T01:02:30;95925.84;;;20.28;62.57
78894;BME280;68282;42.698;23.350;2023-09-18T01:04:56;95932.41;;;20.37;62.64
78894;BME280;68282;42.698;23.350;2023-09-18T01:07:22;95940.72;;;20.32;62.73
78894;BME280;68282;42.698;23.350;2023-09-18T01:09:48;95947.03;;;20.37;62.53
78894;BME280;68282;42.698;23.350;2023-09-18T01:15:16;95935.69;;;20.44;61.82
78894;BME280;68282;42.698;23.350;2023-09-18T01:17:43;95927.47;;;20.34;62.01
78894;BME280;68282;42.698;23.350;2023-09-18T01:20:10;95934.31;;;20.42;61.61
78894;BME280;68282;42.698;23.350;2023-09-18T01:22:35;95937.09;;;20.42;61.51
78894;BME280;68282;42.698;23.350;2023-09-18T01:25:01;95933.22;;;20.37;61.42
78894;BME280;68282;42.698;23.350;2023-09-18T01:27:26;95936.25;;;20.41;61.55
78894;BME280;68282;42.698;23.350;2023-09-18T01:29:52;95929.34;;;20.38;61.79
78894;BME280;68282;42.698;23.350;2023-09-18T01:32:18;95925.50;;;20.39;61.79
78894;BME280;68282;42.698;23.350;2023-09-18T01:34:49;95928.56;;;20.33;61.65
78894;BME280;68282;42.698;23.350;2023-09-18T01:37:17;95934.09;;;20.33;61.71
78894;BME280;68282;42.698;23.350;2023-09-18T01:39:47;95927.78;;;20.27;61.63
78894;BME280;68282;42.698;23.350;2023-09-18T01:42:13;95932.75;;;20.25;61.65
78894;BME280;68282;42.698;23.350;2023-09-18T01:44:39;95947.09;;;20.32;61.43
78894;BME280;68282;42.698;23.350;2023-09-18T01:47:07;95946.56;;;20.25;61.39
78894;BME280;68282;42.698;23.350;2023-09-18T01:49:36;95944.56;;;20.36;61.09
78894;BME280;68282;42.698;23.350;2023-09-18T01:52:03;95941.28;;;20.34;61.17
78894;BME280;68282;42.698;23.350;2023-09-18T01:54:32;95928.88;;;20.31;60.74
78894;BME280;68282;42.698;23.350;2023-09-18T01:56:58;95931.38;;;20.28;61.14
78894;BME280;68282;42.698;23.350;2023-09-18T01:59:24;95933.28;;;20.32;60.77
78894;BME280;68282;42.698;23.350;2023-09-18T02:01:51;95942.63;;;20.36;60.93
78894;BME280;68282;42.698;23.350;2023-09-18T02:04:17;95946.25;;;20.32;60.66
78894;BME280;68282;42.698;23.350;2023-09-18T02:06:44;95951.78;;;20.32;60.93
78894;BME280;68282;42.698;23.350;2023-09-18T02:09:09;95942.16;;;20.24;60.43
78894;BME280;68282;42.698;23.350;2023-09-18T02:11:39;95941.63;;;20.22;60.89
78894;BME280;68282;42.698;23.350;2023-09-18T02:14:06;95934.16;;;20.22;60.78
78894;BME280;68282;42.698;23.350;2023-09-18T02:16:37;95951.53;;;20.28;60.84
78894;BME280;68282;42.698;23.350;2023-09-18T02:19:03;95946.53;;;20.30;60.78
78894;BME280;68282;42.698;23.350;2023-09-18T02:21:30;95953.72;;;20.31;60.80
78894;BME280;68282;42.698;23.350;2023-09-18T02:23:55;95945.19;;;20.28;60.84
78894;BME280;68282;42.698;23.350;2023-09-18T02:26:22;95948.19;;;20.31;60.76
78894;BME280;68282;42.698;23.350;2023-09-18T02:28:48;95954.28;;;20.33;60.81
78894;BME280;68282;42.698;23.350;2023-09-18T02:31:13;95949.56;;;20.34;60.65
78894;BME280;68282;42.698;23.350;2023-09-18T02:33:40;95934.66;;;20.30;60.65
78894;BME280;68282;42.698;23.350;2023-09-18T02:36:07;95947.94;;;20.28;60.67
78894;BME280;68282;42.698;23.350;2023-09-18T02:38:33;95954.03;;;20.24;60.63
78894;BME280;68282;42.698;23.350;2023-09-18T02:40:59;95947.66;;;20.24;60.79
78894;BME280;68282;42.698;23.350;2023-09-18T02:43:25;95943.56;;;20.21;60.67
78894;BME280;68282;42.698;23.350;2023-09-18T02:45:51;95941.03;;;20.25;60.47
78894;BME280;68282;42.698;23.350;2023-09-18T02:48:17;95939.97;;;20.21;60.41
78894;BME280;68282;42.698;23.350;2023-09-18T02:50:43;95939.69;;;20.22;60.55
78894;BME280;68282;42.698;23.350;2023-09-18T02:53:17;95949.91;;;20.22;60.67
78894;BME280;68282;42.698;23.350;2023-09-18T02:55:43;95950.44;;;20.24;60.21
78894;BME280;68282;42.698;23.350;2023-09-18T02:58:08;95939.97;;;20.21;60.34
78894;BME280;68282;42.698;23.350;2023-09-18T03:00:40;95951.03;;;20.21;60.43
78894;BME280;68282;42.698;23.350;2023-09-18T03:03:05;95947.47;;;20.15;60.33
78894;BME280;68282;42.698;23.350;2023-09-18T03:05:31;95953.00;;;20.15;60.42
78894;BME280;68282;42.698;23.350;2023-09-18T03:07:58;95957.94;;;20.18;60.55
78894;BME280;68282;42.698;23.350;2023-09-18T03:10:23;95957.13;;;20.13;60.48
78894;BME280;68282;42.698;23.350;2023-09-18T03:12:50;95961.59;;;20.08;60.89
78894;BME280;68282;42.698;23.350;2023-09-18T03:15:15;95944.75;;;20.05;60.84
78894;BME280;68282;42.698;23.350;2023-09-18T03:17:41;95945.56;;;20.05;60.68
78894;BME280;68282;42.698;23.350;2023-09-18T03:20:08;95950.00;;;20.01;60.80
78894;BME280;68282;42.698;23.350;2023-09-18T03:22:34;95951.94;;;20.01;60.78
78894;BME280;68282;42.698;23.350;2023-09-18T03:24:59;95947.84;;;19.98;61.18
78894;BME280;68282;42.698;23.350;2023-09-18T03:27:25;95937.63;;;19.93;60.94
78894;BME280;68282;42.698;23.350;2023-09-18T03:29:54;95948.38;;;19.95;61.33
78894;BME280;68282;42.698;23.350;2023-09-18T03:32:19;95945.38;;;19.91;61.31
78894;BME280;68282;42.698;23.350;2023-09-18T03:34:45;95943.97;;;19.94;61.30
78894;BME280;68282;42.698;23.350;2023-09-18T03:37:10;95936.53;;;19.89;61.51
78894;BME280;68282;42.698;23.350;2023-09-18T03:39:36;95941.22;;;19.84;61.52
78894;BME280;68282;42.698;23.350;2023-09-18T03:42:01;95936.81;;;19.83;61.39
78894;BME280;68282;42.698;23.350;2023-09-18T03:44:27;95937.09;;;19.86;61.49
78894;BME280;68282;42.698;23.350;2023-09-18T03:46:53;95936.56;;;19.79;61.38
78894;BME280;68282;42.698;23.350;2023-09-18T03:49:18;95931.59;;;19.81;61.55
78894;BME280;68282;42.698;23.350;2023-09-18T03:51:44;95931.34;;;19.77;61.37
78894;BME280;68282;42.698;23.350;2023-09-18T03:54:09;95921.09;;;19.78;61.61
78894;BME280;68282;42.698;23.350;2023-09-18T03:56:35;95920.00;;;19.74;61.57
78894;BME280;68282;42.698;23.350;2023-09-18T03:59:00;95931.03;;;19.84;61.50
78894;BME280;68282;42.698;23.350;2023-09-18T04:01:27;95936.81;;;19.83;61.20
78894;BME280;68282;42.698;23.350;2023-09-18T04:03:52;95932.69;;;19.80;61.41
78894;BME280;68282;42.698;23.350;2023-09-18T04:06:20;95931.03;;;19.79;61.42
78894;BME280;68282;42.698;23.350;2023-09-18T04:08:46;95934.91;;;19.78;61.69
78894;BME280;68282;42.698;23.350;2023-09-18T04:11:11;95928.84;;;19.76;61.55
78894;BME280;68282;42.698;23.350;2023-09-18T04:13:36;95933.81;;;19.74;61.71
78894;BME280;68282;42.698;23.350;2023-09-18T04:16:04;95932.16;;;19.78;61.41
78894;BME280;68282;42.698;23.350;2023-09-18T04:18:29;95927.47;;;19.68;61.44
78894;BME280;68282;42.698;23.350;2023-09-18T04:20:54;95939.88;;;19.76;61.69
78894;BME280;68282;42.698;23.350;2023-09-18T04:23:25;95931.88;;;19.74;61.24
78894;BME280;68282;42.698;23.350;2023-09-18T04:25:51;95950.66;;;19.77;61.61
78894;BME280;68282;42.698;23.350;2023-09-18T04:28:19;95949.81;;;19.77;61.40
78894;BME280;68282;42.698;23.350;2023-09-18T04:30:45;95939.38;;;19.63;61.68
78894;BME280;68282;42.698;23.350;2023-09-18T04:33:11;95941.03;;;19.65;61.84
78894;BME280;68282;42.698;23.350;2023-09-18T04:35:40;95938.25;;;19.65;61.57
78894;BME280;68282;42.698;23.350;2023-09-18T04:38:07;95944.06;;;19.63;61.54
78894;BME280;68282;42.698;23.350;2023-09-18T04:40:34;95943.78;;;19.65;61.83
78894;BME280;68282;42.698;23.350;2023-09-18T04:43:00;95939.66;;;19.62;61.73
78894;BME280;68282;42.698;23.350;2023-09-18T04:45:26;95960.59;;;19.68;61.58
78894;BME280;68282;42.698;23.350;2023-09-18T04:47:52;95946.28;;;19.61;61.98
78894;BME280;68282;42.698;23.350;2023-09-18T04:50:18;95950.97;;;19.66;61.48
78894;BME280;68282;42.698;23.350;2023-09-18T04:52:44;95949.03;;;19.66;61.57
78894;BME280;68282;42.698;23.350;2023-09-18T04:55:10;95941.03;;;19.65;61.36
78894;BME280;68282;42.698;23.350;2023-09-18T04:57:36;95941.56;;;19.67;61.76
78894;BME280;68282;42.698;23.350;2023-09-18T05:00:02;95950.94;;;19.71;61.81
78894;BME280;68282;42.698;23.350;2023-09-18T05:02:28;95931.38;;;19.67;61.57
78894;BME280;68282;42.698;23.350;2023-09-18T05:04:56;95936.06;;;19.67;61.44
78894;BME280;68282;42.698;23.350;2023-09-18T05:07:21;95942.38;;;19.72;61.61
78894;BME280;68282;42.698;23.350;2023-09-18T05:09:47;95941.81;;;19.75;61.52
78894;BME280;68282;42.698;23.350;2023-09-18T05:12:12;95942.38;;;19.77;61.52
78894;BME280;68282;42.698;23.350;2023-09-18T05:14:41;95932.19;;;19.73;61.48
78894;BME280;68282;42.698;23.350;2023-09-18T05:17:10;95945.09;;;19.83;61.27
78894;BME280;68282;42.698;23.350;2023-09-18T05:19:37;95943.47;;;19.76;61.40
78894;BME280;68282;42.698;23.350;2023-09-18T05:22:03;95947.03;;;19.82;61.43
78894;BME280;68282;42.698;23.350;2023-09-18T05:24:28;95950.06;;;19.81;61.61
78894;BME280;68282;42.698;23.350;2023-09-18T05:26:54;95950.91;;;19.81;61.38
78894;BME280;68282;42.698;23.350;2023-09-18T05:29:20;95945.13;;;19.88;61.21
78894;BME280;68282;42.698;23.350;2023-09-18T05:31:46;95945.09;;;19.83;61.57
78894;BME280;68282;42.698;23.350;2023-09-18T05:34:12;95956.19;;;19.72;62.05
78894;BME280;68282;42.698;23.350;2023-09-18T05:36:38;95940.97;;;19.75;61.69
78894;BME280;68282;42.698;23.350;2023-09-18T05:39:03;95954.47;;;19.82;62.11
78894;BME280;68282;42.698;23.350;2023-09-18T05:41:29;95950.63;;;19.83;62.13
78894;BME280;68282;42.698;23.350;2023-09-18T05:43:56;95947.59;;;19.79;62.10
78894;BME280;68282;42.698;23.350;2023-09-18T05:46:21;95957.25;;;19.87;61.92
78894;BME280;68282;42.698;23.350;2023-09-18T05:48:47;95949.50;;;19.84;61.97
78894;BME280;68282;42.698;23.350;2023-09-18T05:51:12;95957.78;;;19.84;62.22
78894;BME280;68282;42.698;23.350;2023-09-18T05:53:38;95962.50;;;19.93;61.88
78894;BME280;68282;42.698;23.350;2023-09-18T05:56:04;95960.03;;;19.87;62.01
78894;BME280;68282;42.698;23.350;2023-09-18T05:58:31;95964.13;;;19.95;61.75
78894;BME280;68282;42.698;23.350;2023-09-18T06:00:58;95967.69;;;20.00;61.92
78894;BME280;68282;42.698;23.350;2023-09-18T06:03:26;95966.00;;;20.04;61.57
78894;BME280;68282;42.698;23.350;2023-09-18T06:05:51;95962.13;;;20.05;61.50
78894;BME280;68282;42.698;23.350;2023-09-18T06:08:17;95959.94;;;20.07;61.39
78894;BME280;68282;42.698;23.350;2023-09-18T06:10:44;95945.88;;;20.04;61.44
78894;BME280;68282;42.698;23.350;2023-09-18T06:13:10;95949.19;;;20.06;61.72
78894;BME280;68282;42.698;23.350;2023-09-18T06:15:36;95951.91;;;20.11;61.69
78894;BME280;68282;42.698;23.350;2023-09-18T06:18:02;95963.50;;;20.13;61.44
78894;BME280;68282;42.698;23.350;2023-09-18T06:20:29;95953.31;;;20.08;61.48
78894;BME280;68282;42.698;23.350;2023-09-18T06:22:54;95949.69;;;20.13;61.50
78894;BME280;68282;42.698;23.350;2023-09-18T06:25:20;95954.09;;;20.14;61.02
78894;BME280;68282;42.698;23.350;2023-09-18T06:27:46;95962.06;;;20.21;60.86
78894;BME280;68282;42.698;23.350;2023-09-18T06:30:12;95951.59;;;20.18;60.98
78894;BME280;68282;42.698;23.350;2023-09-18T06:32:37;95965.34;;;20.28;60.81
78894;BME280;68282;42.698;23.350;2023-09-18T06:35:03;95965.91;;;20.25;60.31
78894;BME280;68282;42.698;23.350;2023-09-18T06:37:28;95963.97;;;20.26;60.53
78894;BME280;68282;42.698;23.350;2023-09-18T06:39:54;95963.66;;;20.32;60.27
78894;BME280;68282;42.698;23.350;2023-09-18T06:42:20;95969.19;;;20.32;60.41
78894;BME280;68282;42.698;23.350;2023-09-18T06:44:45;95969.41;;;20.41;60.15
78894;BME280;68282;42.698;23.350;2023-09-18T06:47:12;95966.38;;;20.37;60.11
78894;BME280;68282;42.698;23.350;2023-09-18T06:49:40;95969.13;;;20.43;60.24
78894;BME280;68282;42.698;23.350;2023-09-18T06:52:07;95959.78;;;20.33;60.16
78894;BME280;68282;42.698;23.350;2023-09-18T06:54:32;95967.75;;;20.40;60.04
78894;BME280;68282;42.698;23.350;2023-09-18T06:56:58;95967.22;;;20.38;59.89
78894;BME280;68282;42.698;23.350;2023-09-18T06:59:27;95971.59;;;20.44;59.75
78894;BME280;68282;42.698;23.350;2023-09-18T07:01:52;95964.41;;;20.48;59.60
78894;BME280;68282;42.698;23.350;2023-09-18T07:04:18;95958.31;;;20.46;59.94
78894;BME280;68282;42.698;23.350;2023-09-18T07:06:43;95954.16;;;20.49;60.13
78894;BME280;68282;42.698;23.350;2023-09-18T07:09:08;95957.13;;;20.58;59.48
78894;BME280;68282;42.698;23.350;2023-09-18T07:11:37;95966.50;;;20.62;59.36
78894;BME280;68282;42.698;23.350;2023-09-18T07:14:02;95953.81;;;20.61;59.03
78894;BME280;68282;42.698;23.350;2023-09-18T07:16:34;95957.00;;;20.73;59.17
78894;BME280;68282;42.698;23.350;2023-09-18T07:19:00;95958.69;;;20.74;59.17
78894;BME280;68282;42.698;23.350;2023-09-18T07:21:26;95957.25;;;20.82;58.83
78894;BME280;68282;42.698;23.350;2023-09-18T07:23:54;95953.63;;;20.87;58.80
78894;BME280;68282;42.698;23.350;2023-09-18T07:26:20;95963.78;;;20.96;58.56
78894;BME280;68282;42.698;23.350;2023-09-18T07:28:46;95960.69;;;21.03;58.37
78894;BME280;68282;42.698;23.350;2023-09-18T07:31:11;95960.09;;;21.06;58.41
78894;BME280;68282;42.698;23.350;2023-09-18T07:33:37;95971.09;;;21.16;58.35
78894;BME280;68282;42.698;23.350;2023-09-18T07:36:03;95962.72;;;21.22;57.96
78894;BME280;68282;42.698;23.350;2023-09-18T07:38:29;95970.22;;;21.21;58.50
78894;BME280;68282;42.698;23.350;2023-09-18T07:40:56;95970.72;;;21.23;57.92
78894;BME280;68282;42.698;23.350;2023-09-18T07:43:21;95963.25;;;21.24;57.77
78894;BME280;68282;42.698;23.350;2023-09-18T07:45:49;95953.88;;;21.20;57.92
78894;BME280;68282;42.698;23.350;2023-09-18T07:48:14;95952.13;;;21.29;57.72
78894;BME280;68282;42.698;23.350;2023-09-18T07:50:45;95962.63;;;21.32;56.83
78894;BME280;68282;42.698;23.350;2023-09-18T07:53:11;95959.81;;;21.37;56.64
78894;BME280;68282;42.698;23.350;2023-09-18T07:55:37;95959.22;;;21.40;56.66
78894;BME280;68282;42.698;23.350;2023-09-18T07:58:03;95963.09;;;21.39;56.67
78894;BME280;68282;42.698;23.350;2023-09-18T08:00:30;95954.22;;;21.42;56.52
78894;BME280;68282;42.698;23.350;2023-09-18T08:02:55;95955.31;;;21.41;56.78
78894;BME280;68282;42.698;23.350;2023-09-18T08:05:29;95948.03;;;21.51;56.20
78894;BME280;68282;42.698;23.350;2023-09-18T08:07:57;95944.75;;;21.49;56.11
78894;BME280;68282;42.698;23.350;2023-09-18T08:10:23;95945.22;;;21.56;56.35
78894;BME280;68282;42.698;23.350;2023-09-18T08:12:48;95941.38;;;21.52;56.03
78894;BME280;68282;42.698;23.350;2023-09-18T08:15:16;95949.84;;;21.66;55.46
78894;BME280;68282;42.698;23.350;2023-09-18T08:17:42;95945.59;;;21.73;55.45
78894;BME280;68282;42.698;23.350;2023-09-18T08:20:08;95943.19;;;21.67;55.47
78894;BME280;68282;42.698;23.350;2023-09-18T08:22:38;95953.84;;;21.78;55.21
78894;BME280;68282;42.698;23.350;2023-09-18T08:25:05;95931.69;;;21.78;54.56
78894;BME280;68282;42.698;23.350;2023-09-18T08:27:33;95943.47;;;21.89;54.64
78894;BME280;68282;42.698;23.350;2023-09-18T08:29:58;95944.22;;;21.95;55.28
78894;BME280;68282;42.698;23.350;2023-09-18T08:32:24;95945.22;;;22.04;54.70
78894;BME280;68282;42.698;23.350;2023-09-18T08:34:49;95928.66;;;21.99;54.29
78894;BME280;68282;42.698;23.350;2023-09-18T08:37:14;95921.66;;;22.07;53.66
78894;BME280;68282;42.698;23.350;2023-09-18T08:39:40;95921.81;;;22.16;53.43
78894;BME280;68282;42.698;23.350;2023-09-18T08:42:07;95916.84;;;22.13;53.75
78894;BME280;68282;42.698;23.350;2023-09-18T08:44:38;95924.66;;;22.30;53.02
78894;BME280;68282;42.698;23.350;2023-09-18T08:47:05;95923.97;;;22.38;53.02
78894;BME280;68282;42.698;23.350;2023-09-18T08:49:31;95910.66;;;22.40;52.43
78894;BME280;68282;42.698;23.350;2023-09-18T08:51:59;95908.94;;;22.44;52.86
78894;BME280;68282;42.698;23.350;2023-09-18T08:54:25;95905.88;;;22.46;53.50
78894;BME280;68282;42.698;23.350;2023-09-18T08:56:51;95909.41;;;22.51;52.38
78894;BME280;68282;42.698;23.350;2023-09-18T08:59:17;95907.38;;;22.57;51.98
78894;BME280;68282;42.698;23.350;2023-09-18T09:01:42;95897.63;;;22.60;52.05
78894;BME280;68282;42.698;23.350;2023-09-18T09:04:08;95894.84;;;22.60;52.24
78894;BME280;68282;42.698;23.350;2023-09-18T09:06:33;95903.00;;;22.70;52.15
78894;BME280;68282;42.698;23.350;2023-09-18T09:09:01;95902.91;;;22.75;51.24
78894;BME280;68282;42.698;23.350;2023-09-18T09:11:27;95906.13;;;22.82;51.08
78894;BME280;68282;42.698;23.350;2023-09-18T09:14:13;95909.63;;;22.88;50.13
78894;BME280;68282;42.698;23.350;2023-09-18T09:16:50;95904.81;;;22.94;50.39
78894;BME280;68282;42.698;23.350;2023-09-18T09:19:17;95901.22;;;22.93;50.29
78894;BME280;68282;42.698;23.350;2023-09-18T09:21:43;95888.97;;;22.94;50.59
78894;BME280;68282;42.698;23.350;2023-09-18T09:24:10;95895.59;;;22.98;50.82
78894;BME280;68282;42.698;23.350;2023-09-18T09:26:40;95889.53;;;23.10;50.09
78894;BME280;68282;42.698;23.350;2023-09-18T09:29:19;95892.22;;;23.15;49.93
78894;BME280;68282;42.698;23.350;2023-09-18T09:31:46;95893.91;;;23.30;49.42
78894;BME280;68282;42.698;23.350;2023-09-18T09:34:24;95889.94;;;23.37;48.78
78894;BME280;68282;42.698;23.350;2023-09-18T09:36:54;95887.75;;;23.47;48.42
78894;BME280;68282;42.698;23.350;2023-09-18T09:39:20;95876.88;;;23.51;47.86
78894;BME280;68282;42.698;23.350;2023-09-18T09:41:53;95882.13;;;23.67;48.01
78894;BME280;68282;42.698;23.350;2023-09-18T09:44:19;95873.25;;;23.78;47.29
78894;BME280;68282;42.698;23.350;2023-09-18T09:46:48;95869.94;;;23.76;47.28
78894;BME280;68282;42.698;23.350;2023-09-18T09:49:14;95873.97;;;23.84;47.71
78894;BME280;68282;42.698;23.350;2023-09-18T09:51:47;95863.97;;;23.83;46.46
78894;BME280;68282;42.698;23.350;2023-09-18T09:54:13;95876.66;;;23.89;46.57
78894;BME280;68282;42.698;23.350;2023-09-18T09:56:46;95866.47;;;23.99;46.54
78894;BME280;68282;42.698;23.350;2023-09-18T09:59:14;95854.94;;;23.91;46.32
78894;BME280;68282;42.698;23.350;2023-09-18T10:01:40;95866.03;;;24.05;46.37
78894;BME280;68282;42.698;23.350;2023-09-18T10:04:14;95862.94;;;24.07;46.11
78894;BME280;68282;42.698;23.350;2023-09-18T10:06:44;95854.00;;;24.10;45.93
78894;BME280;68282;42.698;23.350;2023-09-18T10:09:12;95850.28;;;24.15;45.61
78894;BME280;68282;42.698;23.350;2023-09-18T10:11:41;95854.25;;;24.22;45.22
78894;BME280;68282;42.698;23.350;2023-09-18T10:14:12;95855.78;;;24.29;44.94
78894;BME280;68282;42.698;23.350;2023-09-18T10:16:45;95854.81;;;24.33;45.41
78894;BME280;68282;42.698;23.350;2023-09-18T10:19:37;95849.34;;;24.42;44.50
78894;BME280;68282;42.698;23.350;2023-09-18T10:24:39;95851.06;;;24.52;42.59
78894;BME280;68282;42.698;23.350;2023-09-18T10:27:06;95832.78;;;24.37;43.07
78894;BME280;68282;42.698;23.350;2023-09-18T10:29:35;95830.47;;;24.30;44.06
78894;BME280;68282;42.698;23.350;2023-09-18T10:32:05;95825.47;;;24.41;42.92
78894;BME280;68282;42.698;23.350;2023-09-18T10:34:33;95833.47;;;24.65;43.66
78894;BME280;68282;42.698;23.350;2023-09-18T10:37:00;95825.78;;;24.62;43.03
78894;BME280;68282;42.698;23.350;2023-09-18T10:39:28;95821.97;;;24.58;42.38
78894;BME280;68282;42.698;23.350;2023-09-18T10:41:55;95815.63;;;24.58;42.75
78894;BME280;68282;42.698;23.350;2023-09-18T10:44:23;95809.38;;;24.75;43.24
78894;BME280;68282;42.698;23.350;2023-09-18T10:46:50;95815.66;;;24.89;42.06
78894;BME280;68282;42.698;23.350;2023-09-18T10:49:17;95815.56;;;25.03;42.35
78894;BME280;68282;42.698;23.350;2023-09-18T10:51:43;95813.66;;;25.12;42.14
78894;BME280;68282;42.698;23.350;2023-09-18T10:54:10;95803.38;;;25.22;41.70
78894;BME280;68282;42.698;23.350;2023-09-18T10:56:36;95797.03;;;25.39;41.29
78894;BME280;68282;42.698;23.350;2023-09-18T10:59:03;95785.31;;;25.51;41.54
78894;BME280;68282;42.698;23.350;2023-09-18T11:01:30;95780.25;;;25.61;41.40
78894;BME280;68282;42.698;23.350;2023-09-18T11:04:06;95788.81;;;25.83;40.87
78894;BME280;68282;42.698;23.350;2023-09-18T11:09:27;95787.84;;;25.96;39.80
78894;BME280;68282;42.698;23.350;2023-09-18T11:14:47;95783.59;;;26.25;38.58
78894;BME280;68282;42.698;23.350;2023-09-18T11:17:40;95776.06;;;26.34;38.52
78894;BME280;68282;42.698;23.350;2023-09-18T11:20:18;95779.16;;;26.24;38.35
78894;BME280;68282;42.698;23.350;2023-09-18T11:23:20;95772.28;;;26.04;39.21
78894;BME280;68282;42.698;23.350;2023-09-18T11:26:03;95774.13;;;26.17;39.62
78894;BME280;68282;42.698;23.350;2023-09-18T11:28:30;95764.91;;;26.26;39.25
78894;BME280;68282;42.698;23.350;2023-09-18T11:30:59;95759.81;;;26.36;38.25
78894;BME280;68282;42.698;23.350;2023-09-18T11:33:36;95753.91;;;26.38;38.71
78894;BME280;68282;42.698;23.350;2023-09-18T11:36:05;95759.09;;;26.57;38.76
78894;BME280;68282;42.698;23.350;2023-09-18T11:38:55;95745.63;;;26.68;37.09
78894;BME280;68282;42.698;23.350;2023-09-18T11:41:33;95751.22;;;26.59;37.61
78894;BME280;68282;42.698;23.350;2023-09-18T11:46:38;95746.78;;;26.67;38.60
78894;BME280;68282;42.698;23.350;2023-09-18T11:49:08;95744.63;;;26.73;39.03
78894;BME280;68282;42.698;23.350;2023-09-18T11:51:37;95734.31;;;26.73;38.05
78894;BME280;68282;42.698;23.350;2023-09-18T11:54:03;95739.56;;;26.83;37.11
78894;BME280;68282;42.698;23.350;2023-09-18T11:56:35;95753.03;;;26.81;38.06
78894;BME280;68282;42.698;23.350;2023-09-18T11:59:03;95732.56;;;26.51;37.97
78894;BME280;68282;42.698;23.350;2023-09-18T12:01:34;95732.75;;;26.37;38.35
78894;BME280;68282;42.698;23.350;2023-09-18T12:04:06;95745.06;;;26.18;38.79
78894;BME280;68282;42.698;23.350;2023-09-18T12:06:38;95740.63;;;26.08;40.11
78894;BME280;68282;42.698;23.350;2023-09-18T12:09:05;95730.16;;;26.14;39.79
78894;BME280;68282;42.698;23.350;2023-09-18T12:11:32;95732.09;;;26.14;39.68
78894;BME280;68282;42.698;23.350;2023-09-18T12:14:00;95736.69;;;26.27;39.86
78894;BME280;68282;42.698;23.350;2023-09-18T12:16:25;95733.75;;;26.32;40.14
78894;BME280;68282;42.698;23.350;2023-09-18T12:18:52;95743.25;;;26.31;39.98
78894;BME280;68282;42.698;23.350;2023-09-18T12:21:17;95725.53;;;26.18;40.47
78894;BME280;68282;42.698;23.350;2023-09-18T12:23:44;95734.91;;;26.14;40.22
78894;BME280;68282;42.698;23.350;2023-09-18T12:26:12;95730.78;;;26.02;40.74
78894;BME280;68282;42.698;23.350;2023-09-18T12:28:40;95737.84;;;26.08;40.17
78894;BME280;68282;42.698;23.350;2023-09-18T12:31:06;95720.97;;;26.14;40.50
78894;BME280;68282;42.698;23.350;2023-09-18T12:33:36;95723.09;;;26.17;39.84
78894;BME280;68282;42.698;23.350;2023-09-18T12:36:03;95716.72;;;26.16;40.27
78894;BME280;68282;42.698;23.350;2023-09-18T12:38:29;95716.03;;;26.19;39.31
78894;BME280;68282;42.698;23.350;2023-09-18T12:40:55;95718.00;;;26.19;38.12
78894;BME280;68282;42.698;23.350;2023-09-18T12:43:22;95710.50;;;26.11;38.77
78894;BME280;68282;42.698;23.350;2023-09-18T12:45:49;95722.25;;;26.07;39.23
78894;BME280;68282;42.698;23.350;2023-09-18T12:48:15;95733.75;;;26.06;38.94
78894;BME280;68282;42.698;23.350;2023-09-18T12:50:41;95717.16;;;25.92;39.03
78894;BME280;68282;42.698;23.350;2023-09-18T12:53:13;95724.72;;;25.91;39.32
78894;BME280;68282;42.698;23.350;2023-09-18T12:55:41;95718.81;;;25.93;39.46
78894;BME280;68282;42.698;23.350;2023-09-18T12:58:10;95713.41;;;25.88;39.68
78894;BME280;68282;42.698;23.350;2023-09-18T13:00:36;95700.63;;;25.78;39.13
78894;BME280;68282;42.698;23.350;2023-09-18T13:03:03;95700.97;;;25.76;39.45
78894;BME280;68282;42.698;23.350;2023-09-18T13:05:30;95709.81;;;25.78;39.71